createdAt,value
2018-11-28T00:00:32.418Z,13.97
2018-11-28T00:03:03.709Z,13.60
2018-11-28T00:05:34.642Z,14.43
2018-11-28T00:08:05.999Z,12.93
2018-11-28T00:10:38.501Z,13.73
2018-11-28T00:13:11.783Z,14.20
2018-11-28T00:15:44.193Z,12.63
2018-11-28T00:18:16.754Z,13.30
2018-11-28T00:20:49.430Z,13.30
2018-11-28T00:23:22.464Z,13.40
2018-11-28T00:25:58.812Z,11.30
2018-11-28T00:28:27.138Z,13.97
2018-11-28T00:30:58.329Z,13.43
2018-11-28T00:33:30.739Z,12.20
2018-11-28T00:36:01.986Z,12.50
2018-11-28T00:38:35.303Z,13.23
2018-11-28T00:41:07.840Z,13.43
2018-11-28T00:43:39.049Z,12.97
2018-11-28T00:46:11.642Z,13.10
2018-11-28T00:48:44.470Z,14.97
2018-11-28T00:51:15.599Z,11.83
2018-11-28T00:53:46.622Z,12.60
2018-11-28T00:56:17.377Z,14.13
2018-11-28T00:58:49.806Z,13.17
2018-11-28T01:01:21.030Z,12.97
2018-11-28T01:03:52.377Z,12.43
2018-11-28T01:06:23.315Z,12.77
2018-11-28T01:08:54.402Z,13.03
2018-11-28T01:11:27.458Z,12.50
2018-11-28T01:13:58.483Z,13.07
2018-11-28T01:16:29.644Z,13.80
2018-11-28T01:19:00.709Z,11.43
2018-11-28T01:21:33.417Z,13.07
2018-11-28T01:24:06.457Z,12.37
2018-11-28T01:26:39.038Z,11.70
2018-11-28T01:29:10.168Z,10.70
2018-11-28T01:31:41.326Z,11.63
2018-11-28T01:34:12.447Z,12.30
2018-11-28T01:36:43.730Z,12.93
2018-11-28T01:39:14.754Z,11.67
2018-11-28T01:41:47.362Z,10.23
2018-11-28T01:44:18.499Z,12.37
2018-11-28T01:46:49.835Z,13.67
2018-11-28T01:49:20.789Z,13.70
2018-11-28T01:51:51.695Z,13.43
2018-11-28T01:54:23.079Z,12.03
2018-11-28T01:56:53.899Z,13.70
2018-11-28T01:59:26.431Z,13.07
2018-11-28T02:01:59.422Z,11.50
2018-11-28T02:04:32.635Z,10.37
2018-11-28T02:07:03.788Z,12.87
2018-11-28T02:09:36.298Z,12.87
2018-11-28T02:12:07.905Z,13.43
2018-11-28T02:14:39.159Z,13.30
2018-11-28T02:17:11.736Z,11.23
2018-11-28T02:19:42.711Z,11.43
2018-11-28T02:22:13.681Z,12.50
2018-11-28T02:24:45.838Z,13.23
2018-11-28T02:27:18.507Z,11.47
2018-11-28T02:29:49.837Z,12.17
2018-11-28T02:32:21.307Z,11.70
2018-11-28T02:34:52.268Z,13.67
2018-11-28T02:37:21.687Z,13.33
2018-11-28T02:39:52.650Z,11.87
2018-11-28T02:42:23.471Z,11.07
2018-11-28T02:44:55.889Z,11.30
2018-11-28T02:47:26.417Z,11.73
2018-11-28T02:49:57.322Z,12.13
2018-11-28T02:52:30.223Z,14.13
2018-11-28T02:55:02.929Z,11.67
2018-11-28T02:57:36.523Z,13.73
2018-11-28T03:00:17.499Z,12.93
2018-11-28T03:02:49.926Z,11.93
2018-11-28T03:05:21.368Z,13.80
2018-11-28T03:07:52.185Z,12.83
2018-11-28T03:10:23.657Z,13.37
2018-11-28T03:12:56.236Z,11.77
2018-11-28T03:15:35.118Z,13.83
2018-11-28T03:18:07.887Z,12.33
2018-11-28T03:20:40.515Z,12.37
2018-11-28T03:23:13.154Z,12.97
2018-11-28T03:25:45.680Z,12.33
2018-11-28T03:28:18.357Z,13.87
2018-11-28T03:30:50.732Z,12.30
2018-11-28T03:33:21.544Z,11.77
2018-11-28T03:35:54.162Z,12.73
2018-11-28T03:38:27.089Z,13.33
2018-11-28T03:40:59.437Z,14.20
2018-11-28T03:43:31.776Z,13.80
2018-11-28T03:46:04.178Z,11.83
2018-11-28T03:48:35.310Z,13.03
2018-11-28T03:51:06.497Z,11.50
2018-11-28T03:53:38.960Z,14.03
2018-11-28T03:56:10.194Z,12.83
2018-11-28T03:58:42.655Z,13.90
2018-11-28T04:01:13.294Z,13.47
2018-11-28T04:03:44.032Z,13.33
2018-11-28T04:06:16.417Z,12.97
2018-11-28T04:08:47.170Z,10.73
2018-11-28T04:11:19.794Z,13.10
2018-11-28T04:13:51.113Z,13.30
2018-11-28T04:16:23.428Z,12.00
2018-11-28T04:18:54.293Z,12.57
2018-11-28T04:21:26.821Z,12.93
2018-11-28T04:23:57.505Z,12.47
2018-11-28T04:26:30.245Z,13.10
2018-11-28T04:29:02.735Z,12.07
2018-11-28T04:31:35.223Z,13.70
2018-11-28T04:34:07.778Z,12.33
2018-11-28T04:36:40.662Z,13.97
2018-11-28T04:39:13.286Z,12.77
2018-11-28T04:41:44.490Z,10.47
2018-11-28T04:44:15.487Z,12.20
2018-11-28T04:46:48.034Z,13.20
2018-11-28T04:49:18.861Z,12.73
2018-11-28T04:51:50.019Z,11.10
2018-11-28T04:54:21.179Z,11.53
2018-11-28T04:56:52.510Z,11.70
2018-11-28T04:59:23.736Z,14.03
2018-11-28T05:01:56.163Z,13.03
2018-11-28T05:04:26.229Z,11.93
2018-11-28T05:07:15.923Z,12.63
2018-11-28T05:09:47.071Z,11.73
2018-11-28T05:12:19.421Z,13.37
2018-11-28T05:14:50.770Z,13.83
2018-11-28T05:17:23.226Z,13.33
2018-11-28T05:19:56.290Z,12.53
2018-11-28T05:22:28.815Z,12.00
2018-11-28T05:25:01.045Z,12.97
2018-11-28T05:27:36.718Z,11.40
2018-11-28T05:30:10.423Z,11.97
2018-11-28T05:32:43.656Z,12.60
2018-11-28T05:35:26.181Z,12.87
2018-11-28T05:37:58.679Z,11.17
2018-11-28T05:40:29.483Z,10.50
2018-11-28T05:43:00.715Z,12.50
2018-11-28T05:45:31.849Z,13.30
2018-11-28T05:48:03.024Z,12.83
2018-11-28T05:50:34.293Z,13.47
2018-11-28T05:53:07.040Z,12.20
2018-11-28T05:55:38.093Z,13.20
2018-11-28T05:58:09.458Z,12.23
2018-11-28T06:00:42.864Z,13.27
2018-11-28T06:03:15.393Z,12.60
2018-11-28T06:05:47.751Z,11.67
2018-11-28T06:08:20.181Z,12.97
2018-11-28T06:10:51.391Z,12.40
2018-11-28T06:13:22.660Z,12.73
2018-11-28T06:15:55.075Z,13.23
2018-11-28T06:18:26.355Z,12.33
2018-11-28T06:20:57.512Z,11.37
2018-11-28T06:23:29.949Z,12.40
2018-11-28T06:26:02.758Z,11.83
2018-11-28T06:28:35.856Z,13.30
2018-11-28T06:31:08.414Z,12.63
2018-11-28T06:33:41.623Z,12.03
2018-11-28T06:36:14.162Z,12.80
2018-11-28T06:38:47.141Z,11.87
2018-11-28T06:41:18.249Z,11.77
2018-11-28T06:43:51.553Z,13.70
2018-11-28T06:46:26.171Z,14.07
2018-11-28T06:48:56.582Z,12.80
2018-11-28T06:51:25.951Z,12.80
2018-11-28T06:53:57.026Z,11.77
2018-11-28T06:56:30.139Z,13.43
2018-11-28T06:59:03.561Z,12.23
2018-11-28T07:01:40.691Z,11.73
2018-11-28T07:04:10.101Z,12.77
2018-11-28T07:06:42.987Z,13.07
2018-11-28T07:09:15.372Z,12.33
2018-11-28T07:11:44.800Z,13.93
2018-11-28T07:14:17.904Z,13.20
2018-11-28T07:16:49.205Z,13.93
2018-11-28T07:19:25.083Z,12.63
2018-11-28T07:21:56.042Z,14.33
2018-11-28T07:24:29.455Z,11.93
2018-11-28T07:27:00.707Z,13.83
2018-11-28T07:29:31.906Z,12.13
2018-11-28T07:32:04.520Z,11.63
2018-11-28T07:34:37.112Z,12.43
2018-11-28T07:37:08.432Z,12.80
2018-11-28T07:39:40.906Z,14.07
2018-11-28T07:42:12.292Z,12.60
2018-11-28T07:44:43.038Z,13.50
2018-11-28T07:47:15.527Z,14.73
2018-11-28T07:49:48.103Z,13.93
2018-11-28T07:52:19.046Z,12.43
2018-11-28T07:54:51.624Z,13.60
2018-11-28T07:57:24.159Z,12.80
2018-11-28T07:59:56.760Z,14.47
2018-11-28T08:02:29.201Z,14.53
2018-11-28T08:05:00.168Z,13.57
2018-11-28T08:10:22.142Z,14.57
2018-11-28T08:12:58.250Z,12.83
2018-11-28T08:15:29.277Z,12.40
2018-11-28T08:18:00.241Z,14.07
2018-11-28T08:20:31.694Z,12.43
2018-11-28T08:23:04.963Z,12.33
2018-11-28T08:25:37.444Z,14.60
2018-11-28T08:28:12.939Z,14.20
2018-11-28T08:30:44.137Z,13.43
2018-11-28T08:33:15.203Z,12.40
2018-11-28T08:35:47.676Z,13.33
2018-11-28T08:38:17.980Z,13.33
2018-11-28T08:40:49.326Z,12.33
2018-11-28T08:43:20.479Z,12.57
2018-11-28T08:45:53.659Z,12.90
2018-11-28T08:48:23.047Z,11.80
2018-11-28T08:50:52.970Z,13.77
2018-11-28T08:53:24.157Z,12.23
2018-11-28T08:55:56.694Z,13.13
2018-11-28T08:58:26.063Z,11.53
2018-11-28T09:00:57.107Z,13.33
2018-11-28T09:03:30.094Z,13.87
2018-11-28T09:06:02.519Z,13.33
2018-11-28T09:08:35.608Z,12.13
2018-11-28T09:11:08.060Z,13.57
2018-11-28T09:13:39.448Z,14.53
2018-11-28T09:16:10.502Z,14.80
2018-11-28T09:18:41.544Z,15.27
2018-11-28T09:21:12.827Z,13.33
2018-11-28T09:23:43.870Z,12.50
2018-11-28T09:26:22.075Z,12.77
2018-11-28T09:28:54.713Z,12.17
2018-11-28T09:31:27.109Z,12.83
2018-11-28T09:33:58.250Z,12.93
2018-11-28T09:36:29.414Z,12.03
2018-11-28T09:39:01.858Z,12.97
2018-11-28T09:41:35.077Z,14.53
2018-11-28T09:44:08.441Z,13.17
2018-11-28T09:46:41.035Z,15.37
2018-11-28T09:49:12.233Z,14.13
2018-11-28T09:51:42.900Z,13.83
2018-11-28T09:54:15.519Z,13.17
2018-11-28T09:56:46.462Z,11.77
2018-11-28T09:59:19.176Z,13.83
2018-11-28T10:01:51.613Z,14.57
2018-11-28T10:04:24.021Z,13.43
2018-11-28T10:06:54.978Z,12.63
2018-11-28T10:09:27.839Z,12.50
2018-11-28T10:11:59.985Z,13.40
2018-11-28T10:14:29.411Z,12.40
2018-11-28T10:17:00.791Z,14.97
2018-11-28T10:19:32.257Z,12.87
2018-11-28T10:22:05.588Z,12.90
2018-11-28T10:24:36.719Z,10.70
2018-11-28T10:27:09.390Z,13.60
2018-11-28T10:29:42.095Z,13.33
2018-11-28T10:32:13.117Z,14.43
2018-11-28T10:34:46.076Z,13.60
2018-11-28T10:37:16.824Z,13.80
2018-11-28T10:39:49.323Z,13.33
2018-11-28T10:42:24.729Z,14.20
2018-11-28T10:44:55.706Z,13.77
2018-11-28T10:47:26.297Z,12.83
2018-11-28T10:49:57.563Z,13.37
2018-11-28T10:52:28.776Z,13.47
2018-11-28T10:55:01.414Z,13.77
2018-11-28T10:57:33.971Z,13.47
2018-11-28T11:00:09.575Z,15.07
2018-11-28T11:03:00.466Z,13.47
2018-11-28T11:05:51.089Z,13.73
2018-11-28T11:08:25.148Z,13.67
2018-11-28T11:11:14.247Z,13.87
2018-11-28T11:14:03.374Z,15.50
2018-11-28T11:16:40.158Z,12.37
2018-11-28T11:19:11.263Z,13.43
2018-11-28T11:21:42.385Z,15.13
2018-11-28T11:24:13.309Z,14.50
2018-11-28T11:26:45.730Z,13.13
2018-11-28T11:29:18.234Z,14.83
2018-11-28T11:31:49.026Z,14.97
2018-11-28T11:34:20.397Z,15.10
2018-11-28T11:36:53.987Z,13.73
2018-11-28T11:39:29.764Z,13.87
2018-11-28T11:42:09.289Z,13.37
2018-11-28T11:44:49.870Z,12.53
2018-11-28T11:47:26.837Z,12.40
2018-11-28T11:50:03.085Z,12.60
2018-11-28T11:52:36.492Z,14.43
2018-11-28T11:55:11.168Z,13.23
2018-11-28T11:57:48.879Z,14.77
2018-11-28T12:00:24.942Z,12.23
2018-11-28T12:03:07.412Z,13.03
2018-11-28T12:05:45.245Z,13.33
2018-11-28T12:08:18.751Z,13.93
2018-11-28T12:10:54.897Z,13.47
2018-11-28T12:13:27.390Z,12.73
2018-11-28T12:16:00.499Z,12.73
2018-11-28T12:18:37.907Z,13.50
2018-11-28T12:21:10.468Z,12.73
2018-11-28T12:23:44.900Z,10.87
2018-11-28T12:26:18.270Z,13.27
2018-11-28T12:28:50.942Z,13.60
2018-11-28T12:31:24.555Z,14.17
2018-11-28T12:33:58.018Z,12.27
2018-11-28T12:36:31.332Z,13.03
2018-11-28T12:39:05.346Z,13.53
2018-11-28T12:41:38.364Z,12.83
2018-11-28T12:44:14.603Z,12.90
2018-11-28T12:46:47.324Z,13.60
2018-11-28T12:49:18.278Z,14.03
2018-11-28T12:51:52.507Z,12.80
2018-11-28T12:54:25.251Z,12.57
2018-11-28T12:56:58.459Z,11.60
2018-11-28T12:59:31.117Z,11.53
2018-11-28T13:02:04.722Z,15.17
2018-11-28T13:04:42.220Z,13.00
2018-11-28T13:07:15.822Z,13.13
2018-11-28T13:09:46.914Z,12.43
2018-11-28T13:12:20.190Z,14.37
2018-11-28T13:14:52.141Z,11.67
2018-11-28T13:17:23.607Z,13.23
2018-11-28T13:19:58.991Z,11.00
2018-11-28T13:22:27.981Z,11.90
2018-11-28T13:24:58.845Z,13.20
2018-11-28T13:27:31.903Z,12.00
2018-11-28T13:30:06.517Z,11.57
2018-11-28T13:32:37.688Z,13.20
2018-11-28T13:35:08.636Z,13.00
2018-11-28T13:37:41.282Z,12.40
2018-11-28T13:40:12.881Z,11.53
2018-11-28T13:42:46.038Z,11.40
2018-11-28T13:45:21.879Z,12.73
2018-11-28T13:47:54.767Z,9.37
2018-11-28T13:50:28.302Z,12.80
2018-11-28T13:53:01.731Z,14.07
2018-11-28T13:55:44.773Z,11.73
2018-11-28T13:58:17.587Z,12.87
2018-11-28T14:00:50.212Z,13.70
2018-11-28T14:03:24.067Z,11.10
2018-11-28T14:05:56.912Z,11.53
2018-11-28T14:08:28.342Z,12.93
2018-11-28T14:11:04.861Z,13.03
2018-11-28T14:13:37.328Z,12.47
2018-11-28T14:16:08.367Z,11.27
2018-11-28T14:18:40.874Z,11.87
2018-11-28T14:21:12.730Z,11.50
2018-11-28T14:23:46.008Z,12.13
2018-11-28T14:26:17.507Z,11.43
2018-11-28T14:28:48.674Z,10.83
2018-11-28T14:31:23.040Z,11.80
2018-11-28T14:33:55.551Z,11.80
2018-11-28T14:36:26.592Z,12.83
2018-11-28T14:38:58.014Z,12.43
2018-11-28T14:41:28.703Z,12.13
2018-11-28T14:44:04.202Z,12.00
2018-11-28T14:46:36.900Z,13.07
2018-11-28T14:49:12.447Z,11.77
2018-11-28T14:51:45.803Z,10.93
2018-11-28T14:54:18.446Z,11.33
2018-11-28T14:56:51.493Z,11.13
2018-11-28T14:59:24.956Z,11.00
2018-11-28T15:01:57.972Z,12.27
2018-11-28T15:04:30.986Z,11.70
2018-11-28T15:07:03.629Z,10.23
2018-11-28T15:09:53.286Z,10.93
2018-11-28T15:12:27.081Z,10.83
2018-11-28T15:15:18.355Z,16.57
2018-11-28T15:17:49.053Z,9.53
2018-11-28T15:20:23.034Z,9.33
2018-11-28T15:22:54.278Z,9.93
2018-11-28T15:25:27.359Z,9.50
2018-11-28T15:27:58.462Z,11.20
2018-11-28T15:30:29.781Z,10.43
2018-11-28T15:33:06.770Z,10.37
2018-11-28T15:35:42.649Z,11.07
2018-11-28T15:38:13.985Z,10.17
2018-11-28T15:40:46.719Z,9.30
2018-11-28T15:43:20.133Z,10.73
2018-11-28T15:45:52.954Z,9.73
2018-11-28T15:48:25.479Z,8.73
2018-11-28T15:50:57.967Z,10.30
2018-11-28T15:53:29.149Z,11.27
2018-11-28T15:56:00.253Z,9.57
2018-11-28T15:58:37.777Z,10.63
2018-11-28T16:01:09.020Z,9.00
2018-11-28T16:03:41.973Z,9.57
2018-11-28T16:06:14.565Z,10.10
2018-11-28T16:08:47.395Z,12.33
2018-11-28T16:11:18.920Z,9.53
2018-11-28T16:13:50.002Z,10.53
2018-11-28T16:16:21.108Z,8.70
2018-11-28T16:18:57.730Z,9.53
2018-11-28T16:21:24.649Z,10.23
2018-11-28T16:23:59.369Z,9.50
2018-11-28T16:26:30.782Z,9.53
2018-11-28T16:29:03.744Z,11.10
2018-11-28T16:31:36.639Z,8.97
2018-11-28T16:34:09.622Z,9.77
2018-11-28T16:36:45.096Z,9.90
2018-11-28T16:39:18.337Z,9.30
2018-11-28T16:41:55.584Z,9.50
2018-11-28T16:44:26.308Z,8.77
2018-11-28T16:47:01.748Z,10.00
2018-11-28T16:49:38.399Z,9.63
2018-11-28T16:52:12.913Z,10.00
2018-11-28T16:54:45.663Z,11.23
2018-11-28T16:57:17.179Z,9.83
2018-11-28T16:59:53.413Z,10.33
2018-11-28T17:02:24.843Z,10.57
2018-11-28T17:04:55.925Z,10.07
2018-11-28T17:07:32.019Z,10.93
2018-11-28T17:10:03.326Z,10.43
2018-11-28T17:12:35.790Z,9.90
2018-11-28T17:15:08.665Z,10.67
2018-11-28T17:17:39.732Z,9.53
2018-11-28T17:20:18.479Z,10.23
2018-11-28T17:22:51.778Z,8.97
2018-11-28T17:25:24.844Z,10.87
2018-11-28T17:27:57.572Z,9.00
2018-11-28T17:30:30.927Z,9.57
2018-11-28T17:33:03.605Z,8.43
2018-11-28T17:35:43.784Z,11.23
2018-11-28T17:38:14.654Z,10.97
2018-11-28T17:40:45.369Z,10.93
2018-11-28T17:43:16.702Z,10.20
2018-11-28T17:45:49.874Z,8.93
2018-11-28T17:48:20.922Z,9.33
2018-11-28T17:50:52.734Z,10.43
2018-11-28T17:53:23.148Z,10.07
2018-11-28T17:55:57.554Z,10.67
2018-11-28T17:58:28.892Z,9.80
2018-11-28T18:01:00.144Z,10.83
2018-11-28T18:03:32.765Z,9.70
2018-11-28T18:06:06.140Z,9.37
2018-11-28T18:11:24.144Z,9.17
2018-11-28T18:13:55.018Z,11.10
2018-11-28T18:16:29.596Z,9.33
2018-11-28T18:19:00.781Z,10.87
2018-11-28T18:21:34.232Z,9.97
2018-11-28T18:24:05.657Z,9.03
2018-11-28T18:26:36.874Z,9.33
2018-11-28T18:29:09.571Z,8.27
2018-11-28T18:31:43.195Z,10.47
2018-11-28T18:34:16.254Z,10.20
2018-11-28T18:36:49.863Z,10.23
2018-11-28T18:39:21.365Z,10.87
2018-11-28T18:41:52.834Z,10.77
2018-11-28T18:44:22.528Z,10.37
2018-11-28T18:46:55.440Z,10.23
2018-11-28T18:49:28.595Z,8.97
2018-11-28T18:52:00.201Z,10.63
2018-11-28T18:54:31.117Z,9.60
2018-11-28T18:57:02.601Z,9.97
2018-11-28T18:59:35.936Z,9.83
2018-11-28T19:02:08.583Z,10.83
2018-11-28T19:04:39.852Z,11.93
2018-11-28T19:07:11.331Z,9.23
2018-11-28T19:09:53.082Z,10.53
2018-11-28T19:12:26.273Z,10.67
2018-11-28T19:15:02.218Z,10.13
2018-11-28T19:17:38.400Z,9.50
2018-11-28T19:20:15.411Z,11.70
2018-11-28T19:22:48.945Z,9.93
2018-11-28T19:25:25.765Z,9.83
2018-11-28T19:27:57.592Z,10.80
2018-11-28T19:30:36.803Z,10.73
2018-11-28T19:33:12.652Z,11.57
2018-11-28T19:35:48.361Z,10.67
2018-11-28T19:38:21.042Z,10.53
2018-11-28T19:40:57.924Z,11.57
2018-11-28T19:43:30.387Z,9.57
2018-11-28T19:46:01.498Z,11.37
2018-11-28T19:48:34.514Z,9.97
2018-11-28T19:51:07.862Z,10.23
2018-11-28T19:53:42.169Z,10.57
2018-11-28T19:56:15.244Z,11.50
2018-11-28T19:58:48.806Z,12.90
2018-11-28T20:01:21.595Z,12.47
2018-11-28T20:04:00.205Z,11.70
2018-11-28T20:06:36.022Z,11.27
2018-11-28T20:09:24.408Z,11.33
2018-11-28T20:12:00.717Z,11.80
2018-11-28T20:14:34.141Z,12.63
2018-11-28T20:17:07.052Z,10.67
2018-11-28T20:19:40.313Z,11.93
2018-11-28T20:22:13.493Z,12.30
2018-11-28T20:24:46.851Z,13.47
2018-11-28T20:27:20.077Z,12.70
2018-11-28T20:29:52.741Z,12.13
2018-11-28T20:32:26.376Z,12.60
2018-11-28T20:35:02.970Z,13.70
2018-11-28T20:37:36.426Z,12.80
2018-11-28T20:40:12.686Z,11.83
2018-11-28T20:42:52.843Z,13.13
2018-11-28T20:45:25.774Z,11.67
2018-11-28T20:48:01.401Z,11.63
2018-11-28T20:50:35.160Z,14.23
2018-11-28T20:53:09.943Z,11.43
2018-11-28T20:55:42.753Z,11.93
2018-11-28T20:58:19.259Z,11.07
2018-11-28T21:00:52.178Z,12.73
2018-11-28T21:03:24.631Z,12.10
2018-11-28T21:05:57.662Z,11.23
2018-11-28T21:08:34.075Z,11.70
2018-11-28T21:11:07.709Z,11.67
2018-11-28T21:13:44.575Z,11.20
2018-11-28T21:16:19.168Z,10.77
2018-11-28T21:18:56.632Z,8.80
2018-11-28T21:21:30.015Z,11.00
2018-11-28T21:24:06.885Z,11.33
2018-11-28T21:26:43.143Z,11.13
2018-11-28T21:29:17.550Z,11.27
2018-11-28T21:31:51.177Z,11.37
2018-11-28T21:34:27.071Z,11.07
2018-11-28T21:37:01.333Z,11.83
2018-11-28T21:39:32.631Z,13.07
2018-11-28T21:42:06.925Z,10.70
2018-11-28T21:44:43.951Z,12.90
2018-11-28T21:47:16.503Z,11.27
2018-11-28T21:49:50.972Z,10.57
2018-11-28T21:52:23.622Z,11.60
2018-11-28T21:54:56.862Z,11.07
2018-11-28T21:57:32.402Z,10.23
2018-11-28T22:00:06.158Z,10.90
2018-11-28T22:02:39.641Z,10.20
2018-11-28T22:05:17.787Z,11.67
2018-11-28T22:07:51.031Z,11.47
2018-11-28T22:10:23.959Z,11.03
2018-11-28T22:12:55.340Z,10.50
2018-11-28T22:15:28.225Z,10.10
2018-11-28T22:18:01.307Z,10.33
2018-11-28T22:20:34.757Z,10.23
2018-11-28T22:23:07.858Z,11.53
2018-11-28T22:25:40.866Z,10.87
2018-11-28T22:28:13.473Z,10.97
2018-11-28T22:30:47.151Z,10.43
2018-11-28T22:33:20.180Z,9.53
2018-11-28T22:35:53.713Z,9.47
2018-11-28T22:38:26.655Z,9.57
2018-11-28T22:41:00.231Z,9.73
2018-11-28T22:43:33.683Z,9.63
2018-11-28T22:46:06.179Z,10.23
2018-11-28T22:48:39.256Z,10.60
2018-11-28T22:51:14.678Z,9.70
2018-11-28T22:53:48.084Z,9.23
2018-11-28T22:56:25.290Z,8.53
2018-11-28T22:58:57.826Z,9.03
2018-11-28T23:02:07.896Z,8.70
2018-11-28T23:04:40.789Z,8.60
2018-11-28T23:07:14.010Z,8.67
2018-11-28T23:09:47.101Z,9.93
2018-11-28T23:12:21.780Z,9.23
2018-11-28T23:14:54.180Z,8.67
2018-11-28T23:17:27.279Z,8.30
2018-11-28T23:20:00.579Z,7.20
2018-11-28T23:22:33.982Z,7.60
2018-11-28T23:25:07.785Z,8.73
2018-11-28T23:27:42.128Z,7.30
2018-11-28T23:30:18.457Z,8.13
2018-11-28T23:32:52.733Z,8.10
2018-11-28T23:35:26.155Z,7.97
2018-11-28T23:37:59.565Z,8.03
2018-11-28T23:40:29.710Z,8.30
2018-11-28T23:43:02.147Z,8.17
2018-11-28T23:45:39.396Z,8.50
2018-11-28T23:48:10.769Z,8.23
2018-11-28T23:50:46.368Z,8.10
2018-11-28T23:53:19.492Z,7.20
2018-11-28T23:55:52.122Z,7.10
2018-11-28T23:58:25.333Z,7.30
